sensor_id;sensor_type;location;lat;lon;timestamp;P1;durP1;ratioP1;P2;durP2;ratioP2
21266;SDS011;10791;53.108;18.326;2023-08-21T00:00:45;12.20;;;8.10;;
21266;SDS011;10791;53.108;18.326;2023-08-21T00:06:09;10.10;;;8.00;;
21266;SDS011;10791;53.108;18.326;2023-08-21T00:11:12;12.27;;;7.55;;
21266;SDS011;10791;53.108;18.326;2023-08-21T00:16:16;12.45;;;7.53;;
21266;SDS011;10791;53.108;18.326;2023-08-21T00:21:20;9.40;;;7.13;;
21266;SDS011;10791;53.108;18.326;2023-08-21T00:26:23;10.75;;;7.28;;
21266;SDS011;10791;53.108;18.326;2023-08-21T00:31:26;9.15;;;6.88;;
21266;SDS011;10791;53.108;18.326;2023-08-21T00:36:29;10.05;;;7.28;;
21266;SDS011;10791;53.108;18.326;2023-08-21T00:41:33;10.45;;;7.57;;
21266;SDS011;10791;53.108;18.326;2023-08-21T00:46:36;10.05;;;7.30;;
21266;SDS011;10791;53.108;18.326;2023-08-21T00:51:40;10.88;;;7.82;;
21266;SDS011;10791;53.108;18.326;2023-08-21T00:56:44;9.93;;;7.38;;
21266;SDS011;10791;53.108;18.326;2023-08-21T01:01:50;8.70;;;6.97;;
21266;SDS011;10791;53.108;18.326;2023-08-21T01:06:54;9.98;;;7.78;;
21266;SDS011;10791;53.108;18.326;2023-08-21T01:12:10;9.93;;;7.55;;
21266;SDS011;10791;53.108;18.326;2023-08-21T01:17:23;10.00;;;7.13;;
21266;SDS011;10791;53.108;18.326;2023-08-21T01:22:27;10.48;;;7.18;;
21266;SDS011;10791;53.108;18.326;2023-08-21T01:27:38;10.93;;;7.85;;
21266;SDS011;10791;53.108;18.326;2023-08-21T01:37:56;13.35;;;8.07;;
21266;SDS011;10791;53.108;18.326;2023-08-21T01:43:00;12.02;;;7.63;;
21266;SDS011;10791;53.108;18.326;2023-08-21T01:48:04;10.90;;;7.70;;
21266;SDS011;10791;53.108;18.326;2023-08-21T01:53:07;13.57;;;8.57;;
21266;SDS011;10791;53.108;18.326;2023-08-21T01:58:10;12.52;;;8.35;;
21266;SDS011;10791;53.108;18.326;2023-08-21T02:03:14;10.50;;;8.23;;
21266;SDS011;10791;53.108;18.326;2023-08-21T02:08:18;11.82;;;7.75;;
21266;SDS011;10791;53.108;18.326;2023-08-21T02:13:21;11.13;;;7.43;;
21266;SDS011;10791;53.108;18.326;2023-08-21T02:18:25;9.63;;;7.45;;
21266;SDS011;10791;53.108;18.326;2023-08-21T02:23:28;10.05;;;7.15;;
21266;SDS011;10791;53.108;18.326;2023-08-21T02:28:32;9.82;;;7.53;;
21266;SDS011;10791;53.108;18.326;2023-08-21T02:33:35;11.45;;;7.93;;
21266;SDS011;10791;53.108;18.326;2023-08-21T02:38:39;13.10;;;8.25;;
21266;SDS011;10791;53.108;18.326;2023-08-21T02:43:42;13.77;;;8.15;;
21266;SDS011;10791;53.108;18.326;2023-08-21T02:48:45;11.18;;;7.38;;
21266;SDS011;10791;53.108;18.326;2023-08-21T02:53:49;9.80;;;6.70;;
21266;SDS011;10791;53.108;18.326;2023-08-21T02:58:52;10.63;;;7.47;;
21266;SDS011;10791;53.108;18.326;2023-08-21T03:03:55;12.65;;;7.50;;
21266;SDS011;10791;53.108;18.326;2023-08-21T03:08:59;10.70;;;7.00;;
21266;SDS011;10791;53.108;18.326;2023-08-21T03:14:02;12.30;;;7.00;;
21266;SDS011;10791;53.108;18.326;2023-08-21T03:19:05;11.98;;;7.40;;
21266;SDS011;10791;53.108;18.326;2023-08-21T03:24:09;11.02;;;7.85;;
21266;SDS011;10791;53.108;18.326;2023-08-21T03:29:12;11.68;;;7.70;;
21266;SDS011;10791;53.108;18.326;2023-08-21T03:34:15;10.57;;;6.15;;
21266;SDS011;10791;53.108;18.326;2023-08-21T03:39:19;8.93;;;6.15;;
21266;SDS011;10791;53.108;18.326;2023-08-21T03:44:22;9.80;;;6.05;;
21266;SDS011;10791;53.108;18.326;2023-08-21T03:49:25;10.55;;;5.47;;
21266;SDS011;10791;53.108;18.326;2023-08-21T03:54:28;8.25;;;5.18;;
21266;SDS011;10791;53.108;18.326;2023-08-21T03:59:31;7.78;;;5.45;;
21266;SDS011;10791;53.108;18.326;2023-08-21T04:04:35;9.38;;;5.35;;
21266;SDS011;10791;53.108;18.326;2023-08-21T04:10:13;7.43;;;5.40;;
21266;SDS011;10791;53.108;18.326;2023-08-21T04:15:17;7.72;;;4.93;;
21266;SDS011;10791;53.108;18.326;2023-08-21T04:20:20;8.00;;;4.85;;
21266;SDS011;10791;53.108;18.326;2023-08-21T04:25:27;9.82;;;5.82;;
21266;SDS011;10791;53.108;18.326;2023-08-21T04:30:30;9.50;;;5.85;;
21266;SDS011;10791;53.108;18.326;2023-08-21T04:35:37;7.95;;;4.97;;
21266;SDS011;10791;53.108;18.326;2023-08-21T04:40:41;10.98;;;5.72;;
21266;SDS011;10791;53.108;18.326;2023-08-21T04:45:48;9.65;;;6.20;;
21266;SDS011;10791;53.108;18.326;2023-08-21T04:50:53;10.95;;;6.07;;
21266;SDS011;10791;53.108;18.326;2023-08-21T04:55:58;11.15;;;6.03;;
21266;SDS011;10791;53.108;18.326;2023-08-21T05:01:04;8.88;;;5.45;;
21266;SDS011;10791;53.108;18.326;2023-08-21T05:06:08;10.68;;;5.50;;
21266;SDS011;10791;53.108;18.326;2023-08-21T05:11:11;9.02;;;5.63;;
21266;SDS011;10791;53.108;18.326;2023-08-21T05:16:14;8.27;;;5.05;;
21266;SDS011;10791;53.108;18.326;2023-08-21T05:21:17;10.20;;;4.95;;
21266;SDS011;10791;53.108;18.326;2023-08-21T05:26:20;8.63;;;5.05;;
21266;SDS011;10791;53.108;18.326;2023-08-21T05:31:24;7.90;;;4.57;;
21266;SDS011;10791;53.108;18.326;2023-08-21T05:36:27;10.55;;;4.80;;
21266;SDS011;10791;53.108;18.326;2023-08-21T05:41:30;8.13;;;4.70;;
21266;SDS011;10791;53.108;18.326;2023-08-21T05:46:34;8.90;;;4.53;;
21266;SDS011;10791;53.108;18.326;2023-08-21T05:51:37;7.55;;;4.30;;
21266;SDS011;10791;53.108;18.326;2023-08-21T05:56:40;7.22;;;3.88;;
21266;SDS011;10791;53.108;18.326;2023-08-21T06:01:44;7.28;;;4.45;;
21266;SDS011;10791;53.108;18.326;2023-08-21T06:06:48;9.00;;;3.40;;
21266;SDS011;10791;53.108;18.326;2023-08-21T06:11:51;6.68;;;4.07;;
21266;SDS011;10791;53.108;18.326;2023-08-21T06:16:58;5.30;;;2.67;;
21266;SDS011;10791;53.108;18.326;2023-08-21T06:22:04;4.90;;;3.00;;
21266;SDS011;10791;53.108;18.326;2023-08-21T06:27:08;7.20;;;3.20;;
21266;SDS011;10791;53.108;18.326;2023-08-21T06:32:11;8.07;;;2.97;;
21266;SDS011;10791;53.108;18.326;2023-08-21T06:37:15;6.18;;;3.00;;
21266;SDS011;10791;53.108;18.326;2023-08-21T06:42:18;4.20;;;3.00;;
21266;SDS011;10791;53.108;18.326;2023-08-21T06:47:21;5.82;;;2.60;;
21266;SDS011;10791;53.108;18.326;2023-08-21T06:52:24;4.47;;;2.63;;
21266;SDS011;10791;53.108;18.326;2023-08-21T06:57:28;3.75;;;2.55;;
21266;SDS011;10791;53.108;18.326;2023-08-21T07:02:31;6.85;;;3.58;;
21266;SDS011;10791;53.108;18.326;2023-08-21T07:07:35;4.05;;;2.60;;
21266;SDS011;10791;53.108;18.326;2023-08-21T07:12:38;5.15;;;2.38;;
21266;SDS011;10791;53.108;18.326;2023-08-21T07:17:42;5.20;;;2.30;;
21266;SDS011;10791;53.108;18.326;2023-08-21T07:22:45;4.13;;;2.25;;
21266;SDS011;10791;53.108;18.326;2023-08-21T07:27:49;6.40;;;2.10;;
21266;SDS011;10791;53.108;18.326;2023-08-21T07:32:52;2.58;;;1.45;;
21266;SDS011;10791;53.108;18.326;2023-08-21T07:37:56;3.42;;;1.90;;
21266;SDS011;10791;53.108;18.326;2023-08-21T07:43:00;4.15;;;2.13;;
21266;SDS011;10791;53.108;18.326;2023-08-21T07:48:03;3.50;;;1.80;;
21266;SDS011;10791;53.108;18.326;2023-08-21T07:53:15;4.75;;;1.85;;
21266;SDS011;10791;53.108;18.326;2023-08-21T07:58:19;5.82;;;1.58;;
21266;SDS011;10791;53.108;18.326;2023-08-21T08:03:22;6.03;;;1.90;;
21266;SDS011;10791;53.108;18.326;2023-08-21T08:08:26;2.45;;;1.10;;
21266;SDS011;10791;53.108;18.326;2023-08-21T08:13:30;3.30;;;1.60;;
21266;SDS011;10791;53.108;18.326;2023-08-21T08:18:33;5.57;;;1.45;;
21266;SDS011;10791;53.108;18.326;2023-08-21T08:23:37;3.75;;;1.42;;
21266;SDS011;10791;53.108;18.326;2023-08-21T08:28:40;3.97;;;2.05;;
21266;SDS011;10791;53.108;18.326;2023-08-21T08:33:44;4.18;;;1.40;;
21266;SDS011;10791;53.108;18.326;2023-08-21T08:38:47;2.90;;;1.13;;
21266;SDS011;10791;53.108;18.326;2023-08-21T08:43:51;1.77;;;1.10;;
21266;SDS011;10791;53.108;18.326;2023-08-21T08:48:59;3.50;;;1.42;;
21266;SDS011;10791;53.108;18.326;2023-08-21T08:54:04;3.22;;;1.17;;
21266;SDS011;10791;53.108;18.326;2023-08-21T08:59:08;4.18;;;1.08;;
21266;SDS011;10791;53.108;18.326;2023-08-21T09:04:12;3.38;;;1.00;;
21266;SDS011;10791;53.108;18.326;2023-08-21T09:09:15;3.38;;;0.95;;
21266;SDS011;10791;53.108;18.326;2023-08-21T09:14:25;4.28;;;1.15;;
21266;SDS011;10791;53.108;18.326;2023-08-21T09:19:29;1.83;;;0.88;;
21266;SDS011;10791;53.108;18.326;2023-08-21T09:24:32;2.80;;;1.02;;
21266;SDS011;10791;53.108;18.326;2023-08-21T09:29:39;2.17;;;1.00;;
21266;SDS011;10791;53.108;18.326;2023-08-21T09:34:42;3.00;;;1.17;;
21266;SDS011;10791;53.108;18.326;2023-08-21T09:39:47;1.95;;;1.08;;
21266;SDS011;10791;53.108;18.326;2023-08-21T09:44:51;3.22;;;0.90;;
21266;SDS011;10791;53.108;18.326;2023-08-21T09:49:55;3.60;;;1.20;;
21266;SDS011;10791;53.108;18.326;2023-08-21T09:54:58;2.97;;;0.82;;
21266;SDS011;10791;53.108;18.326;2023-08-21T10:00:03;1.40;;;0.90;;
21266;SDS011;10791;53.108;18.326;2023-08-21T10:05:18;2.20;;;1.15;;
21266;SDS011;10791;53.108;18.326;2023-08-21T10:10:22;3.88;;;1.00;;
21266;SDS011;10791;53.108;18.326;2023-08-21T10:15:29;4.25;;;1.33;;
21266;SDS011;10791;53.108;18.326;2023-08-21T10:20:34;2.40;;;1.00;;
21266;SDS011;10791;53.108;18.326;2023-08-21T10:25:41;2.90;;;1.00;;
21266;SDS011;10791;53.108;18.326;2023-08-21T10:30:45;3.28;;;1.17;;
21266;SDS011;10791;53.108;18.326;2023-08-21T10:35:48;4.78;;;1.20;;
21266;SDS011;10791;53.108;18.326;2023-08-21T10:41:05;2.90;;;1.23;;
21266;SDS011;10791;53.108;18.326;2023-08-21T10:46:10;2.20;;;1.13;;
21266;SDS011;10791;53.108;18.326;2023-08-21T10:51:14;1.80;;;1.02;;
21266;SDS011;10791;53.108;18.326;2023-08-21T10:56:20;2.92;;;1.05;;
21266;SDS011;10791;53.108;18.326;2023-08-21T11:01:23;2.28;;;1.38;;
21266;SDS011;10791;53.108;18.326;2023-08-21T11:06:27;3.55;;;1.25;;
21266;SDS011;10791;53.108;18.326;2023-08-21T11:11:30;2.63;;;1.10;;
21266;SDS011;10791;53.108;18.326;2023-08-21T11:16:33;4.65;;;1.13;;
21266;SDS011;10791;53.108;18.326;2023-08-21T11:21:37;3.08;;;1.35;;
21266;SDS011;10791;53.108;18.326;2023-08-21T11:26:41;1.42;;;0.80;;
21266;SDS011;10791;53.108;18.326;2023-08-21T11:31:45;2.97;;;1.35;;
21266;SDS011;10791;53.108;18.326;2023-08-21T11:36:50;3.13;;;1.15;;
21266;SDS011;10791;53.108;18.326;2023-08-21T11:41:54;4.57;;;1.10;;
21266;SDS011;10791;53.108;18.326;2023-08-21T11:46:58;6.30;;;1.73;;
21266;SDS011;10791;53.108;18.326;2023-08-21T11:52:06;6.18;;;1.30;;
21266;SDS011;10791;53.108;18.326;2023-08-21T11:57:13;5.38;;;1.48;;
21266;SDS011;10791;53.108;18.326;2023-08-21T12:02:18;2.70;;;1.20;;
21266;SDS011;10791;53.108;18.326;2023-08-21T12:07:24;3.25;;;1.85;;
21266;SDS011;10791;53.108;18.326;2023-08-21T12:12:28;3.78;;;1.40;;
21266;SDS011;10791;53.108;18.326;2023-08-21T12:17:31;4.80;;;1.27;;
21266;SDS011;10791;53.108;18.326;2023-08-21T12:22:34;3.55;;;1.38;;
21266;SDS011;10791;53.108;18.326;2023-08-21T12:27:38;1.52;;;1.05;;
21266;SDS011;10791;53.108;18.326;2023-08-21T12:32:42;4.30;;;1.35;;
21266;SDS011;10791;53.108;18.326;2023-08-21T12:37:45;2.67;;;1.65;;
21266;SDS011;10791;53.108;18.326;2023-08-21T12:42:49;3.60;;;1.42;;
21266;SDS011;10791;53.108;18.326;2023-08-21T12:47:52;4.18;;;1.38;;
21266;SDS011;10791;53.108;18.326;2023-08-21T12:52:56;2.78;;;1.38;;
21266;SDS011;10791;53.108;18.326;2023-08-21T12:57:59;3.85;;;1.70;;
21266;SDS011;10791;53.108;18.326;2023-08-21T13:03:03;2.58;;;1.33;;
21266;SDS011;10791;53.108;18.326;2023-08-21T13:08:06;4.47;;;1.67;;
21266;SDS011;10791;53.108;18.326;2023-08-21T13:13:10;3.03;;;1.60;;
21266;SDS011;10791;53.108;18.326;2023-08-21T13:18:13;2.95;;;1.42;;
21266;SDS011;10791;53.108;18.326;2023-08-21T13:23:17;4.95;;;1.80;;
21266;SDS011;10791;53.108;18.326;2023-08-21T13:28:20;3.38;;;1.75;;
21266;SDS011;10791;53.108;18.326;2023-08-21T13:33:23;5.28;;;1.83;;
21266;SDS011;10791;53.108;18.326;2023-08-21T13:38:27;5.15;;;1.58;;
21266;SDS011;10791;53.108;18.326;2023-08-21T13:43:30;4.75;;;1.67;;
21266;SDS011;10791;53.108;18.326;2023-08-21T13:48:34;5.40;;;1.85;;
21266;SDS011;10791;53.108;18.326;2023-08-21T13:53:38;3.35;;;1.42;;
21266;SDS011;10791;53.108;18.326;2023-08-21T13:58:41;3.92;;;1.60;;
21266;SDS011;10791;53.108;18.326;2023-08-21T14:03:45;3.08;;;1.55;;
21266;SDS011;10791;53.108;18.326;2023-08-21T14:08:49;3.05;;;1.48;;
21266;SDS011;10791;53.108;18.326;2023-08-21T14:13:53;2.88;;;1.77;;
21266;SDS011;10791;53.108;18.326;2023-08-21T14:18:56;4.30;;;1.83;;
21266;SDS011;10791;53.108;18.326;2023-08-21T14:24:00;3.22;;;1.42;;
21266;SDS011;10791;53.108;18.326;2023-08-21T14:29:03;4.68;;;1.52;;
21266;SDS011;10791;53.108;18.326;2023-08-21T14:34:06;4.35;;;2.03;;
21266;SDS011;10791;53.108;18.326;2023-08-21T14:39:10;4.00;;;1.90;;
21266;SDS011;10791;53.108;18.326;2023-08-21T14:44:16;5.43;;;1.70;;
21266;SDS011;10791;53.108;18.326;2023-08-21T14:49:19;3.65;;;1.75;;
21266;SDS011;10791;53.108;18.326;2023-08-21T14:54:22;4.00;;;1.75;;
21266;SDS011;10791;53.108;18.326;2023-08-21T14:59:26;6.57;;;1.85;;
21266;SDS011;10791;53.108;18.326;2023-08-21T15:04:30;2.72;;;1.65;;
21266;SDS011;10791;53.108;18.326;2023-08-21T15:09:33;4.60;;;1.73;;
21266;SDS011;10791;53.108;18.326;2023-08-21T15:14:39;5.35;;;1.90;;
21266;SDS011;10791;53.108;18.326;2023-08-21T15:19:43;7.57;;;2.95;;
21266;SDS011;10791;53.108;18.326;2023-08-21T15:24:46;2.85;;;1.50;;
21266;SDS011;10791;53.108;18.326;2023-08-21T15:29:49;3.22;;;1.98;;
21266;SDS011;10791;53.108;18.326;2023-08-21T15:34:53;9.68;;;2.03;;
21266;SDS011;10791;53.108;18.326;2023-08-21T15:39:56;4.15;;;1.45;;
21266;SDS011;10791;53.108;18.326;2023-08-21T15:45:00;4.82;;;1.70;;
21266;SDS011;10791;53.108;18.326;2023-08-21T15:50:04;3.75;;;1.52;;
21266;SDS011;10791;53.108;18.326;2023-08-21T15:55:08;5.03;;;1.70;;
21266;SDS011;10791;53.108;18.326;2023-08-21T16:00:12;2.42;;;1.52;;
21266;SDS011;10791;53.108;18.326;2023-08-21T16:05:15;5.70;;;1.70;;
21266;SDS011;10791;53.108;18.326;2023-08-21T16:10:19;3.53;;;1.60;;
21266;SDS011;10791;53.108;18.326;2023-08-21T16:15:22;4.10;;;1.95;;
21266;SDS011;10791;53.108;18.326;2023-08-21T16:20:26;3.53;;;2.10;;
21266;SDS011;10791;53.108;18.326;2023-08-21T16:25:30;3.78;;;2.00;;
21266;SDS011;10791;53.108;18.326;2023-08-21T16:30:33;9.70;;;1.70;;
21266;SDS011;10791;53.108;18.326;2023-08-21T16:35:37;3.83;;;2.08;;
21266;SDS011;10791;53.108;18.326;2023-08-21T16:40:41;6.03;;;1.73;;
21266;SDS011;10791;53.108;18.326;2023-08-21T16:45:44;3.50;;;1.80;;
21266;SDS011;10791;53.108;18.326;2023-08-21T16:50:47;5.57;;;1.65;;
21266;SDS011;10791;53.108;18.326;2023-08-21T16:55:51;3.10;;;1.67;;
21266;SDS011;10791;53.108;18.326;2023-08-21T17:00:54;8.23;;;2.33;;
21266;SDS011;10791;53.108;18.326;2023-08-21T17:05:58;3.22;;;2.05;;
21266;SDS011;10791;53.108;18.326;2023-08-21T17:11:02;3.60;;;1.75;;
21266;SDS011;10791;53.108;18.326;2023-08-21T17:16:05;6.28;;;2.00;;
21266;SDS011;10791;53.108;18.326;2023-08-21T17:21:09;4.07;;;2.33;;
21266;SDS011;10791;53.108;18.326;2023-08-21T17:26:15;4.60;;;2.25;;
21266;SDS011;10791;53.108;18.326;2023-08-21T17:31:23;3.22;;;2.00;;
21266;SDS011;10791;53.108;18.326;2023-08-21T17:36:27;4.78;;;1.88;;
21266;SDS011;10791;53.108;18.326;2023-08-21T17:41:31;4.25;;;1.85;;
21266;SDS011;10791;53.108;18.326;2023-08-21T17:46:35;5.45;;;2.25;;
21266;SDS011;10791;53.108;18.326;2023-08-21T17:51:38;4.18;;;2.63;;
21266;SDS011;10791;53.108;18.326;2023-08-21T17:56:42;5.13;;;2.50;;
21266;SDS011;10791;53.108;18.326;2023-08-21T18:01:47;6.32;;;2.35;;
21266;SDS011;10791;53.108;18.326;2023-08-21T18:06:50;6.50;;;2.08;;
21266;SDS011;10791;53.108;18.326;2023-08-21T18:11:54;2.58;;;1.42;;
21266;SDS011;10791;53.108;18.326;2023-08-21T18:17:01;3.78;;;1.40;;
21266;SDS011;10791;53.108;18.326;2023-08-21T18:22:06;3.50;;;1.65;;
21266;SDS011;10791;53.108;18.326;2023-08-21T18:27:09;4.03;;;1.15;;
21266;SDS011;10791;53.108;18.326;2023-08-21T18:32:14;2.90;;;1.50;;
21266;SDS011;10791;53.108;18.326;2023-08-21T18:37:17;6.75;;;1.42;;
21266;SDS011;10791;53.108;18.326;2023-08-21T18:42:21;6.57;;;1.60;;
21266;SDS011;10791;53.108;18.326;2023-08-21T18:47:25;4.05;;;1.20;;
21266;SDS011;10791;53.108;18.326;2023-08-21T18:52:31;5.80;;;1.70;;
21266;SDS011;10791;53.108;18.326;2023-08-21T18:57:36;5.00;;;2.00;;
21266;SDS011;10791;53.108;18.326;2023-08-21T19:02:42;6.75;;;1.55;;
21266;SDS011;10791;53.108;18.326;2023-08-21T19:07:47;4.20;;;1.67;;
21266;SDS011;10791;53.108;18.326;2023-08-21T19:12:52;5.70;;;1.88;;
21266;SDS011;10791;53.108;18.326;2023-08-21T19:17:56;3.55;;;1.35;;
21266;SDS011;10791;53.108;18.326;2023-08-21T19:23:04;4.07;;;1.80;;
21266;SDS011;10791;53.108;18.326;2023-08-21T19:28:08;7.43;;;1.65;;
21266;SDS011;10791;53.108;18.326;2023-08-21T19:33:15;5.20;;;1.50;;
21266;SDS011;10791;53.108;18.326;2023-08-21T19:38:23;3.83;;;1.55;;
21266;SDS011;10791;53.108;18.326;2023-08-21T19:43:28;4.53;;;1.70;;
21266;SDS011;10791;53.108;18.326;2023-08-21T19:48:32;7.85;;;1.90;;
21266;SDS011;10791;53.108;18.326;2023-08-21T19:53:36;4.63;;;1.83;;
21266;SDS011;10791;53.108;18.326;2023-08-21T19:58:41;4.93;;;1.63;;
21266;SDS011;10791;53.108;18.326;2023-08-21T20:03:45;4.05;;;1.60;;
21266;SDS011;10791;53.108;18.326;2023-08-21T20:08:49;7.00;;;1.33;;
21266;SDS011;10791;53.108;18.326;2023-08-21T20:13:57;2.35;;;1.27;;
21266;SDS011;10791;53.108;18.326;2023-08-21T20:19:01;3.42;;;1.35;;
21266;SDS011;10791;53.108;18.326;2023-08-21T20:24:06;8.35;;;1.95;;
21266;SDS011;10791;53.108;18.326;2023-08-21T20:29:10;2.60;;;1.50;;
21266;SDS011;10791;53.108;18.326;2023-08-21T20:34:15;4.68;;;1.80;;
21266;SDS011;10791;53.108;18.326;2023-08-21T20:39:18;8.45;;;1.75;;
21266;SDS011;10791;53.108;18.326;2023-08-21T20:44:22;4.88;;;1.55;;
21266;SDS011;10791;53.108;18.326;2023-08-21T20:49:25;9.30;;;1.92;;
21266;SDS011;10791;53.108;18.326;2023-08-21T20:54:29;7.45;;;1.95;;
21266;SDS011;10791;53.108;18.326;2023-08-21T20:59:34;2.40;;;1.25;;
21266;SDS011;10791;53.108;18.326;2023-08-21T21:04:37;4.22;;;1.50;;
21266;SDS011;10791;53.108;18.326;2023-08-21T21:09:40;5.43;;;1.63;;
21266;SDS011;10791;53.108;18.326;2023-08-21T21:14:46;4.03;;;1.67;;
21266;SDS011;10791;53.108;18.326;2023-08-21T21:19:49;6.65;;;1.20;;
21266;SDS011;10791;53.108;18.326;2023-08-21T21:24:52;5.95;;;1.75;;
21266;SDS011;10791;53.108;18.326;2023-08-21T21:29:56;3.75;;;1.33;;
21266;SDS011;10791;53.108;18.326;2023-08-21T21:34:59;2.72;;;1.10;;
21266;SDS011;10791;53.108;18.326;2023-08-21T21:40:03;7.85;;;1.48;;
21266;SDS011;10791;53.108;18.326;2023-08-21T21:45:07;7.05;;;1.50;;
21266;SDS011;10791;53.108;18.326;2023-08-21T21:50:10;5.20;;;1.50;;
21266;SDS011;10791;53.108;18.326;2023-08-21T21:55:14;6.25;;;1.50;;
21266;SDS011;10791;53.108;18.326;2023-08-21T22:00:17;2.90;;;1.45;;
21266;SDS011;10791;53.108;18.326;2023-08-21T22:05:22;5.72;;;2.00;;
21266;SDS011;10791;53.108;18.326;2023-08-21T22:10:26;4.13;;;1.65;;
21266;SDS011;10791;53.108;18.326;2023-08-21T22:15:29;4.20;;;2.50;;
21266;SDS011;10791;53.108;18.326;2023-08-21T22:20:34;3.72;;;1.83;;
21266;SDS011;10791;53.108;18.326;2023-08-21T22:25:39;3.72;;;1.88;;
21266;SDS011;10791;53.108;18.326;2023-08-21T22:30:42;3.63;;;1.85;;
21266;SDS011;10791;53.108;18.326;2023-08-21T22:35:46;2.58;;;1.65;;
21266;SDS011;10791;53.108;18.326;2023-08-21T22:40:50;4.70;;;1.70;;
21266;SDS011;10791;53.108;18.326;2023-08-21T22:45:53;6.65;;;1.83;;
21266;SDS011;10791;53.108;18.326;2023-08-21T22:50:57;5.03;;;1.75;;
21266;SDS011;10791;53.108;18.326;2023-08-21T22:56:04;2.78;;;1.73;;
21266;SDS011;10791;53.108;18.326;2023-08-21T23:01:08;3.40;;;1.48;;
21266;SDS011;10791;53.108;18.326;2023-08-21T23:06:11;4.00;;;1.70;;
21266;SDS011;10791;53.108;18.326;2023-08-21T23:11:14;3.83;;;1.45;;
21266;SDS011;10791;53.108;18.326;2023-08-21T23:16:18;5.90;;;1.80;;
21266;SDS011;10791;53.108;18.326;2023-08-21T23:21:22;7.05;;;1.80;;
21266;SDS011;10791;53.108;18.326;2023-08-21T23:26:26;2.90;;;1.60;;
21266;SDS011;10791;53.108;18.326;2023-08-21T23:31:33;4.68;;;1.77;;
21266;SDS011;10791;53.108;18.326;2023-08-21T23:36:37;4.32;;;1.95;;
21266;SDS011;10791;53.108;18.326;2023-08-21T23:41:40;6.28;;;1.52;;
21266;SDS011;10791;53.108;18.326;2023-08-21T23:46:44;3.58;;;2.05;;
21266;SDS011;10791;53.108;18.326;2023-08-21T23:51:47;5.25;;;2.08;;
21266;SDS011;10791;53.108;18.326;2023-08-21T23:56:50;4.00;;;2.22;;
